Akron Fulton International Airport Akron US
ICAO: KAKR
IATA: AKC
Category: Medium
Scheduled Services: No

Elevation: 1067 ft
TransAlt. 18000 ft.

Airport Communications:
APP/DEP:118.6
ASOS:126.825
CTAF/UNICOM:123.075
CLEVELAND RDO:114.4

KAKR Zoom In..

If you have problems with the map follow the link
https://www.worldairports.se/pages/airport.php?
ICAO=KAKR

Runways:

(A) RW 01 length 2337 ft width 100 ft
LOC 110.90 / hdg 8

(B) RW 07 length 6336 ft width 150 ft
LOC 110.90 / hdg 69

(C) RW 19 length 2337 ft width 100 ft
LOC 110.90 / hdg 188

(D) RW 25 length 6336 ft width 150 ft
LOC 110.90 / hdg 249

Location; KAKR
Day. 21 / Time. 03.54 Zulu
* Altimeter: 30.51
* Temperature: -06° c. -21.2°f.
* Wind from: 300° Speed 03 kn.
Dewpoint: -09° c.
Visibility: 4 Statute Miles.
Clouds: Overcast 3600 ft.
Conditions: Light Snow.

KAKR 210354Z AUTO 30003KT 4SM -SN OVC036 M06/M09 A3051 RMK AO2 SLP345 P0000 T10561089


Wind From 300°
Speed 03 kn.

 
 
jpsmedia worldairports.se 2020   terms of use